Time;durP1;ratioP1;P1;durP2;ratioP2;P2;SDS_P1;SDS_P2;PMS_P1;PMS_P2;Temp;Humidity;BMP_temperature;BMP_pressure;BME280_temperature;BME280_humidity;BME280_pressure;Samples;Min_cycle;Max_cycle;Signal;HPM_P1;HPM_P2
2021/04/04 00:00:12;;;;;;;9.63;2.20;;;20.00;32.90;;;;;;5075136;28;20029;-73
2021/04/04 00:02:37;;;;;;;8.90;2.50;;;20.00;32.90;;;;;;5075084;28;20017;-74
2021/04/04 00:05:04;;;;;;;10.80;2.95;;;20.00;32.90;;;;;;5074728;28;20028;-74
2021/04/04 00:07:30;;;;;;;6.85;2.58;;;20.00;32.90;;;;;;5074989;28;20033;-73
2021/04/04 00:09:56;;;;;;;6.25;2.30;;;20.00;32.90;;;;;;5074955;28;20077;-73
2021/04/04 00:12:21;;;;;;;7.70;2.35;;;19.90;32.90;;;;;;5074981;28;20017;-72
2021/04/04 00:14:47;;;;;;;9.73;2.95;;;20.00;32.90;;;;;;5074798;28;20162;-73
2021/04/04 00:17:13;;;;;;;8.88;3.00;;;20.00;32.90;;;;;;5074776;28;20044;-73
2021/04/04 00:19:39;;;;;;;8.40;2.70;;;20.00;32.90;;;;;;5074515;28;20121;-73
2021/04/04 00:22:04;;;;;;;7.57;2.60;;;20.00;32.90;;;;;;5073984;28;20052;-74
2021/04/04 00:24:30;;;;;;;8.68;2.35;;;19.90;32.90;;;;;;5074644;28;20064;-74
2021/04/04 00:26:55;;;;;;;7.88;2.95;;;20.00;32.90;;;;;;5073308;28;20048;-74
2021/04/04 00:29:21;;;;;;;7.10;2.75;;;20.00;32.90;;;;;;5074327;28;20062;-73
2021/04/04 00:31:46;;;;;;;10.27;2.95;;;19.90;32.90;;;;;;5074500;28;20021;-73
2021/04/04 00:34:12;;;;;;;8.88;2.92;;;19.90;32.90;;;;;;5074517;28;20530;-74
2021/04/04 00:36:38;;;;;;;8.65;3.83;;;19.90;32.80;;;;;;5074552;28;20055;-73
2021/04/04 00:39:11;;;;;;;7.00;2.97;;;19.90;32.90;;;;;;5074303;28;20028;-74
2021/04/04 00:41:38;;;;;;;8.33;2.67;;;19.90;32.90;;;;;;5073096;28;20060;-74
2021/04/04 00:44:04;;;;;;;10.27;3.60;;;19.90;32.90;;;;;;5073967;28;20619;-74
2021/04/04 00:46:30;;;;;;;9.32;3.50;;;19.90;32.90;;;;;;5074112;28;20090;-74
2021/04/04 00:48:55;;;;;;;8.73;2.80;;;19.90;32.90;;;;;;5074043;28;20036;-73
2021/04/04 00:51:21;;;;;;;9.43;3.00;;;19.90;32.80;;;;;;5074192;28;20028;-73
2021/04/04 00:53:47;;;;;;;8.52;2.90;;;19.90;32.90;;;;;;5073927;28;20031;-73
2021/04/04 00:56:13;;;;;;;9.23;2.90;;;19.90;32.90;;;;;;5073843;28;20028;-73
2021/04/04 00:58:39;;;;;;;8.77;2.92;;;19.90;32.80;;;;;;5073939;28;20100;-73
2021/04/04 01:01:06;;;;;;;9.20;3.25;;;19.90;32.80;;;;;;5073538;28;20031;-73
2021/04/04 01:03:32;;;;;;;7.10;2.95;;;19.90;32.90;;;;;;5073567;28;20047;-73
2021/04/04 01:06:02;;;;;;;9.45;3.13;;;19.90;32.80;;;;;;5074036;28;20464;-73
2021/04/04 01:08:29;;;;;;;8.50;2.88;;;19.90;32.80;;;;;;5073712;28;20028;-73
2021/04/04 01:10:54;;;;;;;8.57;2.60;;;19.90;32.80;;;;;;5072676;28;20032;-73
2021/04/04 01:13:31;;;;;;;7.47;3.08;;;19.90;32.80;;;;;;5073719;28;20025;-73
2021/04/04 01:16:09;;;;;;;10.98;3.05;;;19.90;32.80;;;;;;5074133;28;20425;-74
2021/04/04 01:18:40;;;;;;;8.18;3.00;;;19.90;32.80;;;;;;5073888;28;20025;-74
2021/04/04 01:21:16;;;;;;;9.60;3.28;;;19.90;32.80;;;;;;5073265;28;20131;-73
2021/04/04 01:24:07;;;;;;;9.68;2.88;;;19.90;32.80;;;;;;5073494;28;20024;-73
2021/04/04 01:26:45;;;;;;;11.40;2.90;;;19.90;32.80;;;;;;5073495;28;20078;-73
2021/04/04 01:29:11;;;;;;;8.65;3.22;;;19.90;32.80;;;;;;5073532;28;20032;-74
2021/04/04 01:31:38;;;;;;;11.93;2.90;;;19.90;32.80;;;;;;5072113;28;20476;-73
2021/04/04 01:34:05;;;;;;;9.38;3.15;;;19.90;32.90;;;;;;5072862;28;20121;-73
2021/04/04 01:36:35;;;;;;;7.32;2.85;;;19.90;32.80;;;;;;5073334;28;20169;-73
2021/04/04 01:39:06;;;;;;;8.57;2.95;;;19.90;32.80;;;;;;5073183;28;20025;-73
2021/04/04 01:41:34;;;;;;;9.38;3.03;;;19.90;32.80;;;;;;5073446;28;20368;-73
2021/04/04 01:44:22;;;;;;;8.73;3.08;;;19.90;32.80;;;;;;5073781;28;20051;-74
2021/04/04 01:46:50;;;;;;;7.45;2.75;;;19.90;32.80;;;;;;5073816;28;20024;-73
2021/04/04 01:49:17;;;;;;;10.05;3.03;;;19.80;32.80;;;;;;5073210;28;20047;-73
2021/04/04 01:51:44;;;;;;;8.98;3.40;;;19.80;32.80;;;;;;5073172;28;20087;-74
2021/04/04 01:54:11;;;;;;;8.70;2.78;;;19.90;32.80;;;;;;5073173;28;20024;-74
2021/04/04 01:56:37;;;;;;;7.10;2.88;;;19.90;32.80;;;;;;5073316;28;20476;-74
2021/04/04 01:59:04;;;;;;;7.82;2.80;;;19.80;32.80;;;;;;5073061;28;20036;-74
2021/04/04 02:01:31;;;;;;;8.68;3.10;;;19.80;32.80;;;;;;5073334;28;20032;-73
2021/04/04 02:04:04;;;;;;;9.73;2.85;;;19.90;32.80;;;;;;5073018;28;20064;-74
2021/04/04 02:06:32;;;;;;;13.60;3.47;;;19.90;32.80;;;;;;5073244;28;20372;-73
2021/04/04 02:08:58;;;;;;;9.30;3.20;;;19.90;32.80;;;;;;5073198;28;20036;-74
2021/04/04 02:11:27;;;;;;;8.77;2.92;;;19.80;32.80;;;;;;5073170;28;20492;-74
2021/04/04 02:13:53;;;;;;;9.38;3.30;;;19.80;32.80;;;;;;5073026;28;20074;-73
2021/04/04 02:16:20;;;;;;;9.40;2.92;;;19.80;32.80;;;;;;5071511;28;20388;-74
2021/04/04 02:18:47;;;;;;;8.73;2.72;;;19.80;32.70;;;;;;5073370;28;20032;-73
2021/04/04 02:21:13;;;;;;;9.30;2.88;;;19.80;32.70;;;;;;5073005;28;20052;-74
2021/04/04 02:23:40;;;;;;;9.00;3.55;;;19.80;32.70;;;;;;5073028;28;20031;-74
2021/04/04 02:26:06;;;;;;;10.45;3.55;;;19.80;32.70;;;;;;5072916;28;20066;-74
2021/04/04 02:28:31;;;;;;;6.82;2.80;;;19.80;32.80;;;;;;5072814;28;20036;-72
2021/04/04 02:30:58;;;;;;;7.55;3.20;;;19.80;32.70;;;;;;5072773;28;20024;-73
2021/04/04 02:33:48;;;;;;;8.75;3.33;;;19.80;32.70;;;;;;5072847;28;20036;-73
2021/04/04 02:36:15;;;;;;;9.93;3.30;;;19.80;32.80;;;;;;5072851;28;20021;-74
2021/04/04 02:38:45;;;;;;;8.82;3.20;;;19.80;32.70;;;;;;5072729;28;20108;-73
2021/04/04 02:41:11;;;;;;;7.15;2.85;;;19.80;32.70;;;;;;5072772;28;20050;-74
2021/04/04 02:43:39;;;;;;;7.72;2.92;;;19.80;32.80;;;;;;5072618;28;20031;-74
2021/04/04 02:46:09;;;;;;;10.07;3.13;;;19.80;32.80;;;;;;5076384;28;20108;-74
2021/04/04 02:48:47;;;;;;;8.32;3.00;;;19.80;32.70;;;;;;5076228;28;20032;-75
2021/04/04 02:51:18;;;;;;;10.15;2.90;;;19.80;32.70;;;;;;5076217;28;20082;-74
2021/04/04 02:53:50;;;;;;;9.32;3.63;;;19.80;32.70;;;;;;5076226;28;20353;-74
2021/04/04 02:56:18;;;;;;;8.05;3.28;;;19.80;32.70;;;;;;5076508;28;20039;-73
2021/04/04 02:58:46;;;;;;;10.63;3.13;;;19.80;32.70;;;;;;5076378;28;20021;-74
2021/04/04 03:01:14;;;;;;;7.13;2.85;;;19.80;32.70;;;;;;5080141;28;20020;-73
2021/04/04 03:03:42;;;;;;;7.18;2.67;;;19.80;32.70;;;;;;5080161;28;20039;-74
2021/04/04 03:06:09;;;;;;;6.90;2.75;;;19.80;32.70;;;;;;5075906;28;20024;-74
2021/04/04 03:08:46;;;;;;;7.10;3.00;;;19.80;32.70;;;;;;5076176;28;20158;-73
2021/04/04 03:11:15;;;;;;;7.68;3.10;;;19.80;32.70;;;;;;5075951;28;20361;-73
2021/04/04 03:13:47;;;;;;;9.98;3.10;;;19.80;32.70;;;;;;5076525;28;20388;-74
2021/04/04 03:16:13;;;;;;;10.00;3.13;;;19.80;32.70;;;;;;5075989;28;20116;-73
2021/04/04 03:18:41;;;;;;;10.38;3.90;;;19.80;32.70;;;;;;5075740;28;20032;-73
2021/04/04 03:21:09;;;;;;;8.52;2.67;;;19.80;32.70;;;;;;5075430;28;20507;-73
2021/04/04 03:23:35;;;;;;;9.52;3.80;;;19.80;32.70;;;;;;5075865;28;20035;-73
2021/04/04 03:26:02;;;;;;;9.88;3.45;;;19.80;32.70;;;;;;5075649;28;20029;-73
2021/04/04 03:28:28;;;;;;;9.55;2.60;;;19.80;32.70;;;;;;5075630;28;20035;-74
2021/04/04 03:30:54;;;;;;;8.77;2.80;;;19.80;32.70;;;;;;5075839;28;20020;-73
2021/04/04 03:33:22;;;;;;;7.55;2.63;;;19.80;32.70;;;;;;5075442;28;20032;-73
2021/04/04 03:35:51;;;;;;;10.27;3.08;;;19.80;32.70;;;;;;5075859;28;20020;-74
2021/04/04 03:38:20;;;;;;;8.25;2.80;;;19.80;32.70;;;;;;5075336;28;20020;-73
2021/04/04 03:40:46;;;;;;;9.65;3.05;;;19.80;32.70;;;;;;5075226;28;20092;-73
2021/04/04 03:43:22;;;;;;;10.40;3.30;;;19.80;32.70;;;;;;5074331;28;20048;-73
2021/04/04 03:45:51;;;;;;;8.88;3.20;;;19.80;32.70;;;;;;5075438;28;20020;-74
2021/04/04 03:48:19;;;;;;;8.23;2.78;;;19.80;32.70;;;;;;5075277;28;20055;-74
2021/04/04 03:50:46;;;;;;;8.82;2.80;;;19.70;32.70;;;;;;5075485;28;20033;-74
2021/04/04 03:53:13;;;;;;;8.38;2.78;;;19.80;32.70;;;;;;5075426;28;20349;-73
2021/04/04 03:55:42;;;;;;;8.75;2.72;;;19.80;32.70;;;;;;5074403;28;20081;-74
2021/04/04 03:58:09;;;;;;;7.93;2.70;;;19.80;32.60;;;;;;5075198;28;20051;-73
2021/04/04 04:00:36;;;;;;;8.35;2.60;;;19.70;32.70;;;;;;5074815;28;20372;-73
2021/04/04 04:03:03;;;;;;;9.48;2.80;;;19.70;32.60;;;;;;5075279;28;20394;-73
2021/04/04 04:05:30;;;;;;;8.43;2.83;;;19.70;32.60;;;;;;5074899;28;20095;-73
2021/04/04 04:07:56;;;;;;;9.00;2.78;;;19.70;32.60;;;;;;5075115;28;20031;-74
2021/04/04 04:10:22;;;;;;;7.05;2.65;;;19.70;32.60;;;;;;5075541;28;20024;-74
2021/04/04 04:12:49;;;;;;;7.97;3.05;;;19.80;32.60;;;;;;5074848;28;20032;-74
2021/04/04 04:15:16;;;;;;;9.43;2.55;;;19.80;32.60;;;;;;5074511;28;20052;-73
2021/04/04 04:17:45;;;;;;;7.70;2.95;;;19.80;32.60;;;;;;5074689;28;20028;-74
2021/04/04 04:20:12;;;;;;;8.00;2.60;;;19.80;32.60;;;;;;5074776;28;20028;-73
2021/04/04 04:22:40;;;;;;;8.00;2.60;;;19.80;32.50;;;;;;5074667;28;20369;-73
2021/04/04 04:25:06;;;;;;;8.10;2.90;;;19.90;32.50;;;;;;5074443;28;20107;-74
2021/04/04 04:27:33;;;;;;;9.45;3.03;;;19.90;32.50;;;;;;5074373;28;20480;-74
2021/04/04 04:30:01;;;;;;;8.80;2.95;;;19.90;32.50;;;;;;5074731;28;20056;-74
2021/04/04 04:32:28;;;;;;;9.43;2.38;;;20.00;32.50;;;;;;5074425;28;20473;-74
2021/04/04 04:34:55;;;;;;;9.10;3.00;;;19.90;32.50;;;;;;5074310;28;20029;-74
2021/04/04 04:37:22;;;;;;;6.90;2.33;;;20.00;32.50;;;;;;5074190;28;20029;-74
2021/04/04 04:39:49;;;;;;;7.25;2.53;;;20.00;32.50;;;;;;5074420;28;20032;-73
2021/04/04 04:42:16;;;;;;;8.27;3.05;;;20.00;32.50;;;;;;5074184;28;20056;-73
2021/04/04 04:44:49;;;;;;;7.30;2.80;;;20.00;32.40;;;;;;5074322;28;20028;-74
2021/04/04 04:47:15;;;;;;;9.57;2.70;;;20.00;32.40;;;;;;5074040;28;20028;-73
2021/04/04 04:49:45;;;;;;;7.28;2.47;;;20.00;32.50;;;;;;5073838;28;20051;-73
2021/04/04 04:52:12;;;;;;;9.90;2.83;;;20.00;32.50;;;;;;5073944;28;20024;-73
2021/04/04 04:54:42;;;;;;;8.10;2.65;;;20.00;32.50;;;;;;5073966;28;20024;-73
2021/04/04 04:57:10;;;;;;;9.75;3.58;;;20.00;32.40;;;;;;5074128;28;20024;-74
2021/04/04 04:59:36;;;;;;;7.07;2.75;;;20.00;32.40;;;;;;5073805;28;20032;-73
2021/04/04 05:02:04;;;;;;;7.60;2.72;;;20.00;32.50;;;;;;5073977;28;20024;-73
2021/04/04 05:04:29;;;;;;;6.25;2.20;;;20.10;32.40;;;;;;5074194;28;20062;-73
2021/04/04 05:06:56;;;;;;;9.77;2.45;;;20.10;32.40;;;;;;5073924;28;20043;-74
2021/04/04 05:09:22;;;;;;;6.43;2.30;;;20.10;32.50;;;;;;5073594;28;20041;-73
2021/04/04 05:11:49;;;;;;;9.68;3.10;;;20.10;32.40;;;;;;5073588;28;20376;-73
2021/04/04 05:14:15;;;;;;;6.53;2.20;;;20.10;32.40;;;;;;5074046;28;20032;-73
2021/04/04 05:16:42;;;;;;;7.57;2.58;;;20.10;32.50;;;;;;5073682;28;20090;-73
2021/04/04 05:19:08;;;;;;;7.55;2.20;;;20.00;32.40;;;;;;5073772;28;20046;-73
2021/04/04 05:21:34;;;;;;;10.02;2.70;;;20.10;32.50;;;;;;5074008;28;20060;-73
2021/04/04 05:24:02;;;;;;;8.27;2.47;;;20.10;32.50;;;;;;5073836;28;20376;-73
2021/04/04 05:26:29;;;;;;;9.20;2.60;;;20.10;32.40;;;;;;5073607;28;20149;-74
2021/04/04 05:28:55;;;;;;;8.82;2.70;;;20.10;32.40;;;;;;5073425;28;20033;-71
2021/04/04 05:31:21;;;;;;;7.22;2.80;;;20.10;32.40;;;;;;5073189;28;20021;-74
2021/04/04 05:33:47;;;;;;;8.18;2.95;;;20.10;32.40;;;;;;5073873;28;20038;-73
2021/04/04 05:36:13;;;;;;;10.07;2.83;;;20.10;32.40;;;;;;5073938;28;20042;-74
2021/04/04 05:38:38;;;;;;;7.63;2.72;;;20.10;32.30;;;;;;5073727;28;20468;-73
2021/04/04 05:41:05;;;;;;;7.95;2.42;;;20.10;32.40;;;;;;5073359;28;20582;-74
2021/04/04 05:43:40;;;;;;;10.02;2.70;;;20.10;32.40;;;;;;5073368;28;20036;-72
2021/04/04 05:46:17;;;;;;;8.00;2.83;;;20.10;32.40;;;;;;5073186;28;20040;-74
2021/04/04 05:48:58;;;;;;;6.78;2.22;;;20.20;32.40;;;;;;5073147;28;20484;-74
2021/04/04 05:51:51;;;;;;;8.05;2.58;;;20.20;32.40;;;;;;5072022;28;20427;-73
2021/04/04 05:54:54;;;;;;;5.90;2.05;;;20.20;32.30;;;;;;5073200;28;20029;-74
2021/04/04 05:57:27;;;;;;;8.93;2.70;;;20.20;32.40;;;;;;5073160;28;20029;-73
2021/04/04 06:00:01;;;;;;;11.15;3.00;;;20.20;32.40;;;;;;5073035;28;20024;-73
2021/04/04 06:02:46;;;;;;;7.43;2.25;;;20.10;32.40;;;;;;5073172;28;20025;-73
2021/04/04 06:05:28;;;;;;;6.85;2.15;;;20.20;32.30;;;;;;5072655;28;20029;-74
2021/04/04 06:08:13;;;;;;;7.70;2.17;;;20.20;32.40;;;;;;5073091;28;20029;-74
2021/04/04 06:10:55;;;;;;;7.00;2.25;;;20.20;32.30;;;;;;5072930;28;20389;-73
2021/04/04 06:13:37;;;;;;;6.88;2.15;;;20.20;32.30;;;;;;5073025;28;20029;-73
2021/04/04 06:16:35;;;;;;;6.15;2.15;;;20.20;32.40;;;;;;5073410;28;20035;-73
2021/04/04 06:19:25;;;;;;;5.22;1.98;;;20.20;32.30;;;;;;5041936;28;20068;-73
2021/04/04 06:22:36;;;;;;;9.35;2.88;;;20.20;32.40;;;;;;5076826;28;20098;-73
2021/04/04 06:25:44;;;;;;;8.10;2.38;;;20.20;32.30;;;;;;5022087;28;20049;-73
2021/04/04 06:28:29;;;;;;;7.38;2.13;;;20.20;32.40;;;;;;5068275;28;20109;-73
2021/04/04 06:31:16;;;;;;;8.43;2.30;;;20.20;32.30;;;;;;5077071;28;20020;-73
2021/04/04 06:33:47;;;;;;;8.35;2.60;;;20.20;32.40;;;;;;5076411;28;20060;-73
2021/04/04 06:36:43;;;;;;;8.20;2.72;;;20.20;32.40;;;;;;5076596;28;20020;-74
2021/04/04 06:39:31;;;;;;;7.60;2.38;;;20.20;32.30;;;;;;5076808;28;20044;-73
2021/04/04 06:42:09;;;;;;;7.63;2.22;;;20.20;32.40;;;;;;5076591;28;20070;-73
2021/04/04 06:44:55;;;;;;;6.53;2.30;;;20.20;32.30;;;;;;5076423;28;20098;-73
2021/04/04 06:48:08;;;;;;;6.45;2.00;;;20.30;32.40;;;;;;5076980;28;20094;-73
2021/04/04 06:50:42;;;;;;;7.45;1.98;;;20.30;32.40;;;;;;5029385;28;20043;-73
2021/04/04 06:53:22;;;;;;;7.47;2.50;;;20.20;32.40;;;;;;5076156;28;20070;-73
2021/04/04 06:55:56;;;;;;;5.85;1.98;;;20.20;32.40;;;;;;5076333;28;20028;-73
2021/04/04 06:58:45;;;;;;;7.18;2.70;;;20.30;32.40;;;;;;5076013;28;20090;-73
2021/04/04 07:01:36;;;;;;;7.68;2.20;;;20.30;32.30;;;;;;5076204;28;20052;-73
2021/04/04 07:04:26;;;;;;;13.68;2.65;;;20.30;32.30;;;;;;5076191;28;20038;-73
2021/04/04 07:07:37;;;;;;;7.05;2.00;;;20.30;32.40;;;;;;5076452;28;20025;-73
2021/04/04 07:10:30;;;;;;;5.65;2.33;;;20.30;32.40;;;;;;5075838;28;20028;-73
2021/04/04 07:13:13;;;;;;;7.28;1.95;;;20.30;32.40;;;;;;5076089;28;20024;-73
2021/04/04 07:15:51;;;;;;;8.50;3.40;;;20.30;32.40;;;;;;5074757;28;20028;-73
2021/04/04 07:18:44;;;;;;;5.75;2.08;;;20.30;32.40;;;;;;5076119;28;20035;-73
2021/04/04 07:21:19;;;;;;;5.80;1.80;;;20.20;32.40;;;;;;5075602;28;20040;-73
2021/04/04 07:24:06;;;;;;;5.40;2.05;;;20.30;32.40;;;;;;5075704;28;20082;-74
2021/04/04 07:26:46;;;;;;;7.32;2.50;;;20.30;32.40;;;;;;5075780;28;20036;-73
2021/04/04 07:29:43;;;;;;;6.68;1.88;;;20.30;32.40;;;;;;5074431;28;20040;-73
2021/04/04 07:32:20;;;;;;;6.68;2.05;;;20.30;32.40;;;;;;5073123;28;20391;-74
2021/04/04 07:34:55;;;;;;;5.60;1.55;;;20.30;32.40;;;;;;5075491;28;20024;-73
2021/04/04 07:37:35;;;;;;;5.97;2.10;;;20.30;32.40;;;;;;5075260;28;20499;-74
2021/04/04 07:40:07;;;;;;;7.20;2.03;;;20.30;32.40;;;;;;5075178;28;20123;-74
2021/04/04 07:42:51;;;;;;;4.47;1.80;;;20.30;32.40;;;;;;5075152;28;20028;-74
2021/04/04 07:45:21;;;;;;;7.35;2.28;;;20.30;32.40;;;;;;5075399;28;20052;-74
2021/04/04 07:48:05;;;;;;;6.03;1.98;;;20.30;32.40;;;;;;5075099;28;20106;-74
2021/04/04 07:50:37;;;;;;;5.85;2.08;;;20.30;32.40;;;;;;5075199;28;20035;-74
2021/04/04 07:53:27;;;;;;;7.47;1.85;;;20.30;32.40;;;;;;5075044;28;20025;-75
2021/04/04 07:56:31;;;;;;;6.43;2.10;;;20.30;32.40;;;;;;5075120;28;20032;-74
2021/04/04 07:59:01;;;;;;;7.28;1.85;;;20.30;32.40;;;;;;5075386;28;20384;-74
2021/04/04 08:01:38;;;;;;;4.63;1.67;;;20.30;32.40;;;;;;5075712;28;20056;-73
2021/04/04 08:04:17;;;;;;;9.23;2.35;;;20.30;32.40;;;;;;5075177;28;20116;-73
2021/04/04 08:06:48;;;;;;;6.40;1.80;;;20.30;32.40;;;;;;5075218;28;20082;-73
2021/04/04 08:09:41;;;;;;;6.05;1.88;;;20.30;32.40;;;;;;5074943;28;20036;-73
2021/04/04 08:12:17;;;;;;;6.72;1.77;;;20.30;32.40;;;;;;5074893;28;20029;-73
2021/04/04 08:15:15;;;;;;;6.63;1.88;;;20.30;32.40;;;;;;5075089;28;20394;-74
2021/04/04 08:17:41;;;;;;;6.47;2.17;;;20.30;32.40;;;;;;5069153;28;20036;-73
2021/04/04 08:20:22;;;;;;;7.15;2.00;;;20.30;32.40;;;;;;5074720;28;20017;-73
2021/04/04 08:23:15;;;;;;;7.63;2.17;;;20.30;32.40;;;;;;5074497;28;20041;-73
2021/04/04 08:25:54;;;;;;;5.07;1.42;;;20.30;32.40;;;;;;5073332;28;20032;-73
2021/04/04 08:28:33;;;;;;;5.47;1.60;;;20.30;32.40;;;;;;5074789;28;20070;-74
2021/04/04 08:31:20;;;;;;;5.03;1.73;;;20.30;32.40;;;;;;5074674;28;20439;-72
2021/04/04 08:34:07;;;;;;;4.82;1.77;;;20.30;32.40;;;;;;5074519;28;20050;-73
2021/04/04 08:36:38;;;;;;;5.00;1.60;;;20.30;32.40;;;;;;5074349;28;20352;-73
2021/04/04 08:39:05;;;;;;;6.60;2.00;;;20.30;32.50;;;;;;5074235;28;20477;-74
2021/04/04 08:41:36;;;;;;;5.68;1.65;;;20.30;32.40;;;;;;5073947;28;20310;-74
2021/04/04 08:44:15;;;;;;;5.47;1.90;;;20.30;32.50;;;;;;5074290;28;20484;-74
2021/04/04 08:46:49;;;;;;;5.43;2.05;;;20.30;32.50;;;;;;5074288;28;20028;-73
2021/04/04 08:49:17;;;;;;;6.20;1.65;;;20.30;32.50;;;;;;5074310;28;20071;-74
2021/04/04 08:51:48;;;;;;;6.13;1.90;;;20.30;32.50;;;;;;5074055;28;20020;-74
2021/04/04 08:54:18;;;;;;;6.97;2.03;;;20.30;32.50;;;;;;5074509;28;20059;-74
2021/04/04 08:56:46;;;;;;;5.18;1.65;;;20.30;32.50;;;;;;5073996;28;20534;-75
2021/04/04 08:59:14;;;;;;;5.78;1.60;;;20.30;32.50;;;;;;5073689;28;20032;-75
2021/04/04 09:01:46;;;;;;;5.65;1.80;;;20.30;32.40;;;;;;5074459;28;20070;-74
2021/04/04 09:04:11;;;;;;;8.35;2.08;;;20.30;32.50;;;;;;5074417;28;20545;-74
2021/04/04 09:06:43;;;;;;;5.10;1.80;;;20.30;32.50;;;;;;5074043;28;20112;-74
2021/04/04 09:09:21;;;;;;;7.85;2.53;;;20.30;32.50;;;;;;5073838;28;20058;-73
2021/04/04 09:11:49;;;;;;;5.82;1.73;;;20.30;32.50;;;;;;5073821;28;20384;-73
2021/04/04 09:14:17;;;;;;;4.93;1.75;;;20.30;32.50;;;;;;5073845;28;20082;-73
2021/04/04 09:16:53;;;;;;;4.45;1.52;;;20.30;32.50;;;;;;5073671;28;20032;-74
2021/04/04 09:19:37;;;;;;;5.88;1.35;;;20.30;32.50;;;;;;5073960;28;20354;-73
2021/04/04 09:22:08;;;;;;;4.38;1.70;;;20.30;32.50;;;;;;5072269;28;20044;-73
2021/04/04 09:24:56;;;;;;;5.55;1.85;;;20.30;32.50;;;;;;5074000;28;20078;-74
2021/04/04 09:27:24;;;;;;;5.63;1.95;;;20.30;32.50;;;;;;5073576;28;20020;-73
2021/04/04 09:29:52;;;;;;;7.22;1.88;;;20.30;32.50;;;;;;5073752;28;20101;-73
2021/04/04 09:32:35;;;;;;;4.53;1.52;;;20.30;32.50;;;;;;5073526;28;20017;-73
2021/04/04 09:35:04;;;;;;;5.78;1.60;;;20.30;32.50;;;;;;5073753;28;20073;-74
2021/04/04 09:37:30;;;;;;;7.38;2.08;;;20.30;32.50;;;;;;5072898;28;20021;-74
2021/04/04 09:39:57;;;;;;;5.55;1.70;;;20.40;32.50;;;;;;5072958;28;20028;-74
2021/04/04 09:42:23;;;;;;;5.28;1.75;;;20.30;32.50;;;;;;5071690;28;20033;-74
2021/04/04 09:44:49;;;;;;;6.93;1.77;;;20.30;32.50;;;;;;5071602;28;20024;-73
2021/04/04 09:47:14;;;;;;;5.93;1.50;;;20.30;32.50;;;;;;5073191;28;20093;-74
2021/04/04 09:49:44;;;;;;;3.83;1.33;;;20.30;32.50;;;;;;5073308;28;20036;-74
2021/04/04 09:52:17;;;;;;;5.80;1.58;;;20.30;32.50;;;;;;5073555;28;20048;-74
2021/04/04 09:55:09;;;;;;;5.15;1.40;;;20.40;32.50;;;;;;5072661;28;20452;-73
2021/04/04 09:57:43;;;;;;;5.18;1.38;;;20.30;32.50;;;;;;5073436;28;20473;-74
2021/04/04 10:00:27;;;;;;;4.90;1.75;;;20.40;32.50;;;;;;5073535;28;20036;-74
2021/04/04 10:02:55;;;;;;;3.90;1.20;;;20.30;32.50;;;;;;5079744;28;20126;-74
2021/04/04 10:05:26;;;;;;;5.22;1.50;;;20.40;32.50;;;;;;5073662;28;20526;-74
2021/04/04 10:07:52;;;;;;;2.95;1.30;;;20.30;32.50;;;;;;5072242;28;20036;-75
2021/04/04 10:10:31;;;;;;;5.85;1.80;;;20.30;32.50;;;;;;5073499;28;20035;-74
2021/04/04 10:12:58;;;;;;;4.90;1.30;;;20.30;32.50;;;;;;5073197;28;20028;-76
2021/04/04 10:15:24;;;;;;;5.25;1.58;;;20.40;32.40;;;;;;5073167;28;20017;-73
2021/04/04 10:17:57;;;;;;;5.57;1.25;;;20.30;32.40;;;;;;5073272;28;20021;-73
2021/04/04 10:20:37;;;;;;;5.25;1.25;;;20.30;32.50;;;;;;5073411;28;20792;-74
2021/04/04 10:23:06;;;;;;;5.95;1.52;;;20.40;32.40;;;;;;5073598;28;20031;-74
2021/04/04 10:25:32;;;;;;;6.18;1.52;;;20.40;32.50;;;;;;5073007;28;20027;-74
2021/04/04 10:28:04;;;;;;;6.85;1.90;;;20.40;32.50;;;;;;5072832;28;20517;-74
2021/04/04 10:30:31;;;;;;;4.93;1.52;;;20.30;32.40;;;;;;5073508;28;20079;-75
2021/04/04 10:33:20;;;;;;;6.93;1.73;;;20.30;32.50;;;;;;5073634;28;20024;-73
2021/04/04 10:35:46;;;;;;;4.68;1.50;;;20.30;32.50;;;;;;5074153;28;20020;-73
2021/04/04 10:38:19;;;;;;;4.82;1.30;;;20.30;32.50;;;;;;5073665;28;20435;-73
2021/04/04 10:40:50;;;;;;;5.18;1.50;;;20.30;32.50;;;;;;5072927;28;20043;-73
2021/04/04 10:43:37;;;;;;;4.10;1.15;;;20.40;32.50;;;;;;5072988;28;20025;-74
2021/04/04 10:46:06;;;;;;;6.38;1.50;;;20.30;32.50;;;;;;5072072;28;20040;-74
2021/04/04 10:48:35;;;;;;;5.35;1.40;;;20.30;32.50;;;;;;5071409;28;20033;-74
2021/04/04 10:51:01;;;;;;;4.57;1.27;;;20.30;32.50;;;;;;5072591;28;20215;-74
2021/04/04 10:53:27;;;;;;;4.47;1.50;;;20.40;32.50;;;;;;5072774;28;20499;-73
2021/04/04 10:55:53;;;;;;;3.63;1.30;;;20.30;32.50;;;;;;5072693;28;20027;-73
2021/04/04 10:58:24;;;;;;;4.40;1.48;;;20.30;32.50;;;;;;5071388;28;20469;-74
2021/04/04 11:00:50;;;;;;;3.10;1.20;;;20.30;32.50;;;;;;5072905;28;20028;-74
2021/04/04 11:03:16;;;;;;;3.97;1.20;;;20.30;32.60;;;;;;5072649;28;20222;-74
2021/04/04 11:05:41;;;;;;;3.40;1.00;;;20.30;32.60;;;;;;5074557;28;20024;-74
2021/04/04 11:08:07;;;;;;;3.45;1.25;;;20.30;32.50;;;;;;5076488;28;20119;-74
2021/04/04 11:10:33;;;;;;;3.83;1.13;;;20.30;32.50;;;;;;5074855;28;20043;-74
2021/04/04 11:13:00;;;;;;;3.55;1.15;;;20.30;32.50;;;;;;5076103;28;20028;-73
2021/04/04 11:15:31;;;;;;;5.30;1.52;;;20.30;32.50;;;;;;5075954;28;20029;-73
2021/04/04 11:18:00;;;;;;;3.83;1.33;;;20.30;32.50;;;;;;5076239;28;20373;-73
2021/04/04 11:20:26;;;;;;;3.25;1.45;;;20.30;32.60;;;;;;5075830;28;20048;-75
2021/04/04 11:22:52;;;;;;;4.70;1.67;;;20.30;32.50;;;;;;5076123;28;20031;-73
2021/04/04 11:25:18;;;;;;;4.10;1.40;;;20.30;32.50;;;;;;5075777;28;20029;-73
2021/04/04 11:27:48;;;;;;;4.80;1.30;;;20.40;32.50;;;;;;5075890;28;20013;-73
2021/04/04 11:30:27;;;;;;;3.60;1.20;;;20.30;32.50;;;;;;5075543;28;20032;-73
2021/04/04 11:33:15;;;;;;;4.88;1.30;;;20.40;32.50;;;;;;5075931;28;20020;-74
2021/04/04 11:36:05;;;;;;;5.75;1.30;;;20.40;32.50;;;;;;5075795;28;20025;-74
2021/04/04 11:38:39;;;;;;;2.42;1.17;;;20.40;32.50;;;;;;5076530;28;20369;-73
2021/04/04 11:41:24;;;;;;;3.20;1.17;;;20.30;32.50;;;;;;5075689;28;20056;-75
2021/04/04 11:43:51;;;;;;;3.83;1.10;;;20.30;32.50;;;;;;5075796;28;20033;-74
2021/04/04 11:46:44;;;;;;;3.47;1.33;;;20.30;32.50;;;;;;5074280;28;20032;-74
2021/04/04 11:49:28;;;;;;;4.35;1.30;;;20.30;32.50;;;;;;5075394;28;20511;-74
2021/04/04 11:51:59;;;;;;;4.50;1.33;;;20.30;32.50;;;;;;5075296;28;20029;-74
2021/04/04 11:54:49;;;;;;;3.28;1.30;;;20.40;32.50;;;;;;5075417;28;20048;-74
2021/04/04 11:57:26;;;;;;;4.97;1.58;;;20.40;32.50;;;;;;5074995;28;20021;-73
2021/04/04 12:00:00;;;;;;;2.90;1.10;;;20.40;32.50;;;;;;5074126;28;20025;-74
2021/04/04 12:02:28;;;;;;;3.83;1.10;;;20.40;32.50;;;;;;5075056;28;20079;-74
2021/04/04 12:05:11;;;;;;;4.40;1.20;;;20.40;32.50;;;;;;5075205;28;20020;-74
2021/04/04 12:07:57;;;;;;;3.50;1.10;;;20.40;32.50;;;;;;5075185;28;20020;-75
2021/04/04 12:10:31;;;;;;;4.05;1.40;;;20.40;32.40;;;;;;5074841;28;20040;-74
2021/04/04 12:12:58;;;;;;;4.03;1.27;;;20.40;32.50;;;;;;5074802;28;20108;-74
2021/04/04 12:15:25;;;;;;;5.57;1.20;;;20.40;32.50;;;;;;5074724;28;20032;-75
2021/04/04 12:17:53;;;;;;;4.55;1.50;;;20.40;32.50;;;;;;5076845;28;20108;-73
2021/04/04 12:20:24;;;;;;;3.13;1.10;;;20.40;32.50;;;;;;5074495;28;20114;-73
2021/04/04 12:22:50;;;;;;;6.22;1.33;;;20.40;32.50;;;;;;5074952;28;20033;-74
2021/04/04 12:25:20;;;;;;;4.25;1.40;;;20.40;32.50;;;;;;5074643;28;20036;-73
2021/04/04 12:27:48;;;;;;;3.40;1.10;;;20.40;32.50;;;;;;5074561;28;20457;-73
2021/04/04 12:30:42;;;;;;;4.53;1.00;;;20.40;32.50;;;;;;5074524;28;20056;-73
2021/04/04 12:33:10;;;;;;;3.92;1.10;;;20.40;32.50;;;;;;5072928;28;20048;-73
2021/04/04 12:35:39;;;;;;;5.50;1.65;;;20.40;32.50;;;;;;5074508;28;20021;-74
2021/04/04 12:38:06;;;;;;;2.80;1.00;;;20.40;32.50;;;;;;5074355;28;20047;-73
2021/04/04 12:40:32;;;;;;;3.83;1.10;;;20.40;32.50;;;;;;5074302;28;20526;-74
2021/04/04 12:43:01;;;;;;;4.53;1.25;;;20.40;32.50;;;;;;5074236;28;20629;-74
2021/04/04 12:45:35;;;;;;;4.30;1.20;;;20.40;32.50;;;;;;5074198;28;20103;-72
2021/04/04 12:48:10;;;;;;;3.28;1.17;;;20.40;32.50;;;;;;5073825;28;20045;-75
2021/04/04 12:50:36;;;;;;;3.72;1.05;;;20.40;32.50;;;;;;5073982;28;20040;-74
2021/04/04 12:53:01;;;;;;;3.00;1.02;;;20.40;32.50;;;;;;5072895;28;20028;-74
2021/04/04 12:55:32;;;;;;;4.03;1.02;;;20.40;32.50;;;;;;5074051;28;20036;-74
2021/04/04 12:58:06;;;;;;;3.72;1.20;;;20.40;32.50;;;;;;5073953;28;20055;-73
2021/04/04 13:00:40;;;;;;;3.53;1.20;;;20.40;32.50;;;;;;5074237;28;20033;-74
2021/04/04 13:03:17;;;;;;;3.03;1.20;;;20.40;32.50;;;;;;5073890;28;20032;-73
2021/04/04 13:05:51;;;;;;;4.97;1.23;;;20.40;32.50;;;;;;5073937;28;20056;-74
2021/04/04 13:08:34;;;;;;;5.03;1.35;;;20.40;32.50;;;;;;5073986;28;20070;-73
2021/04/04 13:11:06;;;;;;;4.05;1.13;;;20.40;32.50;;;;;;5073736;28;20388;-73
2021/04/04 13:13:34;;;;;;;4.60;1.23;;;20.40;32.50;;;;;;5073747;28;20484;-73